sensor_id;sensor_type;location;lat;lon;timestamp;P1;durP1;ratioP1;P2;durP2;ratioP2
5904;SDS011;2978;42.012;24.880;2022-08-19T00:01:20;7.77;;;6.10;;
5904;SDS011;2978;42.012;24.880;2022-08-19T00:03:46;11.30;;;5.67;;
5904;SDS011;2978;42.012;24.880;2022-08-19T00:06:11;8.57;;;6.47;;
5904;SDS011;2978;42.012;24.880;2022-08-19T00:08:37;7.15;;;5.25;;
5904;SDS011;2978;42.012;24.880;2022-08-19T00:11:02;9.07;;;6.25;;
5904;SDS011;2978;42.012;24.880;2022-08-19T00:13:28;10.53;;;5.73;;
5904;SDS011;2978;42.012;24.880;2022-08-19T00:15:54;9.70;;;5.87;;
5904;SDS011;2978;42.012;24.880;2022-08-19T00:18:20;11.47;;;6.40;;
5904;SDS011;2978;42.012;24.880;2022-08-19T00:20:46;7.73;;;5.50;;
5904;SDS011;2978;42.012;24.880;2022-08-19T00:23:11;10.80;;;5.60;;
5904;SDS011;2978;42.012;24.880;2022-08-19T00:25:37;12.23;;;6.30;;
5904;SDS011;2978;42.012;24.880;2022-08-19T00:28:02;10.20;;;6.10;;
5904;SDS011;2978;42.012;24.880;2022-08-19T00:30:29;10.00;;;5.30;;
5904;SDS011;2978;42.012;24.880;2022-08-19T00:32:55;8.23;;;6.13;;
5904;SDS011;2978;42.012;24.880;2022-08-19T00:35:21;8.23;;;6.47;;
5904;SDS011;2978;42.012;24.880;2022-08-19T00:37:47;7.43;;;6.00;;
5904;SDS011;2978;42.012;24.880;2022-08-19T00:40:14;7.17;;;6.00;;
5904;SDS011;2978;42.012;24.880;2022-08-19T00:42:40;7.37;;;6.00;;
5904;SDS011;2978;42.012;24.880;2022-08-19T00:45:16;11.63;;;6.50;;
5904;SDS011;2978;42.012;24.880;2022-08-19T00:47:49;7.68;;;6.45;;
5904;SDS011;2978;42.012;24.880;2022-08-19T00:50:15;6.55;;;5.88;;
5904;SDS011;2978;42.012;24.880;2022-08-19T00:52:45;16.13;;;6.43;;
5904;SDS011;2978;42.012;24.880;2022-08-19T00:55:24;7.50;;;5.70;;
5904;SDS011;2978;42.012;24.880;2022-08-19T00:57:55;6.00;;;5.00;;
5904;SDS011;2978;42.012;24.880;2022-08-19T01:00:23;6.40;;;4.90;;
5904;SDS011;2978;42.012;24.880;2022-08-19T01:02:50;18.07;;;5.80;;
5904;SDS011;2978;42.012;24.880;2022-08-19T01:05:21;13.60;;;5.97;;
5904;SDS011;2978;42.012;24.880;2022-08-19T01:07:52;9.57;;;5.80;;
5904;SDS011;2978;42.012;24.880;2022-08-19T01:10:19;7.80;;;5.70;;
5904;SDS011;2978;42.012;24.880;2022-08-19T01:12:48;11.60;;;5.60;;
5904;SDS011;2978;42.012;24.880;2022-08-19T01:15:16;7.93;;;5.47;;
5904;SDS011;2978;42.012;24.880;2022-08-19T01:17:45;13.37;;;5.53;;
5904;SDS011;2978;42.012;24.880;2022-08-19T01:20:15;10.10;;;5.67;;
5904;SDS011;2978;42.012;24.880;2022-08-19T01:22:45;7.63;;;5.37;;
5904;SDS011;2978;42.012;24.880;2022-08-19T01:25:14;7.10;;;5.50;;
5904;SDS011;2978;42.012;24.880;2022-08-19T01:27:45;9.70;;;6.10;;
5904;SDS011;2978;42.012;24.880;2022-08-19T01:30:14;8.00;;;6.03;;
5904;SDS011;2978;42.012;24.880;2022-08-19T01:32:49;9.30;;;5.87;;
5904;SDS011;2978;42.012;24.880;2022-08-19T01:35:15;9.53;;;6.17;;
5904;SDS011;2978;42.012;24.880;2022-08-19T01:37:47;10.20;;;5.80;;
5904;SDS011;2978;42.012;24.880;2022-08-19T01:40:19;7.43;;;6.18;;
5904;SDS011;2978;42.012;24.880;2022-08-19T01:42:49;7.80;;;5.57;;
5904;SDS011;2978;42.012;24.880;2022-08-19T01:45:16;10.10;;;6.43;;
5904;SDS011;2978;42.012;24.880;2022-08-19T01:47:43;7.18;;;5.63;;
5904;SDS011;2978;42.012;24.880;2022-08-19T01:50:09;8.50;;;6.27;;
5904;SDS011;2978;42.012;24.880;2022-08-19T01:52:36;6.37;;;5.30;;
5904;SDS011;2978;42.012;24.880;2022-08-19T01:55:04;6.37;;;5.57;;
5904;SDS011;2978;42.012;24.880;2022-08-19T01:57:32;8.73;;;5.30;;
5904;SDS011;2978;42.012;24.880;2022-08-19T01:59:57;7.00;;;5.53;;
5904;SDS011;2978;42.012;24.880;2022-08-19T02:02:24;10.57;;;6.27;;
5904;SDS011;2978;42.012;24.880;2022-08-19T02:04:50;10.30;;;6.20;;
5904;SDS011;2978;42.012;24.880;2022-08-19T02:07:18;8.20;;;6.57;;
5904;SDS011;2978;42.012;24.880;2022-08-19T02:09:45;7.03;;;5.67;;
5904;SDS011;2978;42.012;24.880;2022-08-19T02:12:10;6.53;;;5.37;;
5904;SDS011;2978;42.012;24.880;2022-08-19T02:14:36;9.30;;;5.93;;
5904;SDS011;2978;42.012;24.880;2022-08-19T02:17:02;6.77;;;5.83;;
5904;SDS011;2978;42.012;24.880;2022-08-19T02:19:28;8.20;;;5.67;;
5904;SDS011;2978;42.012;24.880;2022-08-19T02:21:53;6.37;;;5.13;;
5904;SDS011;2978;42.012;24.880;2022-08-19T02:24:18;9.20;;;5.37;;
5904;SDS011;2978;42.012;24.880;2022-08-19T02:26:44;7.37;;;5.90;;
5904;SDS011;2978;42.012;24.880;2022-08-19T02:29:09;8.30;;;5.30;;
5904;SDS011;2978;42.012;24.880;2022-08-19T02:31:35;8.55;;;5.82;;
5904;SDS011;2978;42.012;24.880;2022-08-19T02:34:01;6.73;;;5.90;;
5904;SDS011;2978;42.012;24.880;2022-08-19T02:36:26;10.70;;;6.20;;
5904;SDS011;2978;42.012;24.880;2022-08-19T02:38:53;7.33;;;5.17;;
5904;SDS011;2978;42.012;24.880;2022-08-19T02:41:21;6.50;;;5.67;;
5904;SDS011;2978;42.012;24.880;2022-08-19T02:43:49;8.00;;;5.70;;
5904;SDS011;2978;42.012;24.880;2022-08-19T02:46:15;6.77;;;5.50;;
5904;SDS011;2978;42.012;24.880;2022-08-19T02:48:50;7.13;;;5.57;;
5904;SDS011;2978;42.012;24.880;2022-08-19T02:51:22;14.25;;;5.55;;
5904;SDS011;2978;42.012;24.880;2022-08-19T02:53:50;7.03;;;5.00;;
5904;SDS011;2978;42.012;24.880;2022-08-19T02:56:16;7.17;;;5.90;;
5904;SDS011;2978;42.012;24.880;2022-08-19T02:58:42;10.30;;;5.60;;
5904;SDS011;2978;42.012;24.880;2022-08-19T03:01:09;9.87;;;5.60;;
5904;SDS011;2978;42.012;24.880;2022-08-19T03:03:35;9.67;;;5.53;;
5904;SDS011;2978;42.012;24.880;2022-08-19T03:06:03;6.30;;;5.40;;
5904;SDS011;2978;42.012;24.880;2022-08-19T03:08:33;8.93;;;5.68;;
5904;SDS011;2978;42.012;24.880;2022-08-19T03:10:58;8.63;;;5.13;;
5904;SDS011;2978;42.012;24.880;2022-08-19T03:13:24;7.37;;;5.37;;
5904;SDS011;2978;42.012;24.880;2022-08-19T03:15:49;5.83;;;5.17;;
5904;SDS011;2978;42.012;24.880;2022-08-19T03:18:16;7.27;;;5.37;;
5904;SDS011;2978;42.012;24.880;2022-08-19T03:20:45;8.33;;;5.40;;
5904;SDS011;2978;42.012;24.880;2022-08-19T03:23:13;11.57;;;6.28;;
5904;SDS011;2978;42.012;24.880;2022-08-19T03:25:41;8.37;;;5.20;;
5904;SDS011;2978;42.012;24.880;2022-08-19T03:28:10;10.77;;;6.10;;
5904;SDS011;2978;42.012;24.880;2022-08-19T03:30:37;8.10;;;5.57;;
5904;SDS011;2978;42.012;24.880;2022-08-19T03:33:02;7.73;;;5.20;;
5904;SDS011;2978;42.012;24.880;2022-08-19T03:35:28;6.13;;;5.33;;
5904;SDS011;2978;42.012;24.880;2022-08-19T03:37:53;7.57;;;5.60;;
5904;SDS011;2978;42.012;24.880;2022-08-19T03:40:19;11.05;;;5.85;;
5904;SDS011;2978;42.012;24.880;2022-08-19T03:42:44;9.77;;;5.87;;
5904;SDS011;2978;42.012;24.880;2022-08-19T03:45:11;6.93;;;4.90;;
5904;SDS011;2978;42.012;24.880;2022-08-19T03:47:36;13.20;;;5.50;;
5904;SDS011;2978;42.012;24.880;2022-08-19T03:50:02;6.43;;;5.80;;
5904;SDS011;2978;42.012;24.880;2022-08-19T03:52:29;5.73;;;4.80;;
5904;SDS011;2978;42.012;24.880;2022-08-19T03:54:55;14.10;;;5.57;;
5904;SDS011;2978;42.012;24.880;2022-08-19T03:57:20;7.73;;;5.33;;
5904;SDS011;2978;42.012;24.880;2022-08-19T03:59:46;6.95;;;4.88;;
5904;SDS011;2978;42.012;24.880;2022-08-19T04:02:11;8.00;;;5.87;;
5904;SDS011;2978;42.012;24.880;2022-08-19T04:04:38;11.70;;;5.80;;
5904;SDS011;2978;42.012;24.880;2022-08-19T04:07:08;8.70;;;5.20;;
5904;SDS011;2978;42.012;24.880;2022-08-19T04:09:35;9.77;;;6.17;;
5904;SDS011;2978;42.012;24.880;2022-08-19T04:12:01;7.83;;;5.87;;
5904;SDS011;2978;42.012;24.880;2022-08-19T04:14:30;9.32;;;6.07;;
5904;SDS011;2978;42.012;24.880;2022-08-19T04:16:56;8.57;;;5.90;;
5904;SDS011;2978;42.012;24.880;2022-08-19T04:19:23;8.30;;;5.40;;
5904;SDS011;2978;42.012;24.880;2022-08-19T04:21:49;6.60;;;5.50;;
5904;SDS011;2978;42.012;24.880;2022-08-19T04:24:17;7.27;;;5.17;;
5904;SDS011;2978;42.012;24.880;2022-08-19T04:26:43;10.83;;;6.00;;
5904;SDS011;2978;42.012;24.880;2022-08-19T04:29:30;20.10;;;5.90;;
5904;SDS011;2978;42.012;24.880;2022-08-19T04:31:55;7.30;;;4.50;;
5904;SDS011;2978;42.012;24.880;2022-08-19T04:34:22;11.13;;;5.87;;
5904;SDS011;2978;42.012;24.880;2022-08-19T04:36:49;7.57;;;5.47;;
5904;SDS011;2978;42.012;24.880;2022-08-19T04:39:17;9.80;;;5.23;;
5904;SDS011;2978;42.012;24.880;2022-08-19T04:41:45;18.70;;;5.40;;
5904;SDS011;2978;42.012;24.880;2022-08-19T04:44:30;8.40;;;5.37;;
5904;SDS011;2978;42.012;24.880;2022-08-19T04:46:57;5.63;;;4.75;;
5904;SDS011;2978;42.012;24.880;2022-08-19T04:49:23;7.67;;;4.60;;
5904;SDS011;2978;42.012;24.880;2022-08-19T04:51:50;9.68;;;5.85;;
5904;SDS011;2978;42.012;24.880;2022-08-19T04:54:19;7.13;;;5.00;;
5904;SDS011;2978;42.012;24.880;2022-08-19T04:56:47;7.50;;;5.13;;
5904;SDS011;2978;42.012;24.880;2022-08-19T04:59:15;8.37;;;4.77;;
5904;SDS011;2978;42.012;24.880;2022-08-19T05:01:42;8.88;;;5.65;;
5904;SDS011;2978;42.012;24.880;2022-08-19T05:04:08;6.20;;;5.50;;
5904;SDS011;2978;42.012;24.880;2022-08-19T05:06:34;7.40;;;5.00;;
5904;SDS011;2978;42.012;24.880;2022-08-19T05:09:01;6.72;;;4.93;;
5904;SDS011;2978;42.012;24.880;2022-08-19T05:11:30;7.87;;;5.00;;
5904;SDS011;2978;42.012;24.880;2022-08-19T05:13:57;8.33;;;5.30;;
5904;SDS011;2978;42.012;24.880;2022-08-19T05:16:25;7.40;;;5.30;;
5904;SDS011;2978;42.012;24.880;2022-08-19T05:18:51;9.87;;;5.20;;
5904;SDS011;2978;42.012;24.880;2022-08-19T05:21:36;6.23;;;5.50;;
5904;SDS011;2978;42.012;24.880;2022-08-19T05:24:21;15.53;;;4.93;;
5904;SDS011;2978;42.012;24.880;2022-08-19T05:26:49;7.10;;;4.60;;
5904;SDS011;2978;42.012;24.880;2022-08-19T05:29:17;12.15;;;5.78;;
5904;SDS011;2978;42.012;24.880;2022-08-19T05:31:46;9.70;;;5.20;;
5904;SDS011;2978;42.012;24.880;2022-08-19T05:34:17;9.47;;;4.73;;
5904;SDS011;2978;42.012;24.880;2022-08-19T05:37:02;12.80;;;4.90;;
5904;SDS011;2978;42.012;24.880;2022-08-19T05:39:30;8.70;;;4.90;;
5904;SDS011;2978;42.012;24.880;2022-08-19T05:41:58;11.30;;;5.20;;
5904;SDS011;2978;42.012;24.880;2022-08-19T05:44:28;9.20;;;5.70;;
5904;SDS011;2978;42.012;24.880;2022-08-19T05:47:01;8.13;;;4.80;;
5904;SDS011;2978;42.012;24.880;2022-08-19T05:49:29;11.50;;;6.23;;
5904;SDS011;2978;42.012;24.880;2022-08-19T05:51:56;6.67;;;4.47;;
5904;SDS011;2978;42.012;24.880;2022-08-19T05:54:22;15.37;;;5.20;;
5904;SDS011;2978;42.012;24.880;2022-08-19T05:56:50;9.70;;;5.07;;
5904;SDS011;2978;42.012;24.880;2022-08-19T05:59:17;5.97;;;4.37;;
5904;SDS011;2978;42.012;24.880;2022-08-19T06:01:45;9.73;;;5.37;;
5904;SDS011;2978;42.012;24.880;2022-08-19T06:04:11;9.13;;;5.23;;
5904;SDS011;2978;42.012;24.880;2022-08-19T06:06:44;9.20;;;5.63;;
5904;SDS011;2978;42.012;24.880;2022-08-19T06:09:11;6.13;;;5.13;;
5904;SDS011;2978;42.012;24.880;2022-08-19T06:11:38;5.70;;;4.97;;
5904;SDS011;2978;42.012;24.880;2022-08-19T06:14:07;10.00;;;5.00;;
5904;SDS011;2978;42.012;24.880;2022-08-19T06:16:36;9.23;;;5.43;;
5904;SDS011;2978;42.012;24.880;2022-08-19T06:19:05;7.20;;;4.73;;
5904;SDS011;2978;42.012;24.880;2022-08-19T06:21:33;8.27;;;4.70;;
5904;SDS011;2978;42.012;24.880;2022-08-19T06:24:02;6.93;;;5.10;;
5904;SDS011;2978;42.012;24.880;2022-08-19T06:26:29;12.73;;;5.10;;
5904;SDS011;2978;42.012;24.880;2022-08-19T06:28:55;5.80;;;4.37;;
5904;SDS011;2978;42.012;24.880;2022-08-19T06:31:22;10.40;;;5.63;;
5904;SDS011;2978;42.012;24.880;2022-08-19T06:33:50;12.53;;;5.93;;
5904;SDS011;2978;42.012;24.880;2022-08-19T06:36:17;10.10;;;5.50;;
5904;SDS011;2978;42.012;24.880;2022-08-19T06:38:56;10.40;;;4.80;;
5904;SDS011;2978;42.012;24.880;2022-08-19T06:41:23;8.50;;;5.60;;
5904;SDS011;2978;42.012;24.880;2022-08-19T06:43:50;8.87;;;4.80;;
5904;SDS011;2978;42.012;24.880;2022-08-19T06:46:16;12.33;;;7.50;;
5904;SDS011;2978;42.012;24.880;2022-08-19T06:48:43;7.78;;;5.00;;
5904;SDS011;2978;42.012;24.880;2022-08-19T06:51:09;8.93;;;5.03;;
5904;SDS011;2978;42.012;24.880;2022-08-19T06:53:34;7.80;;;4.83;;
5904;SDS011;2978;42.012;24.880;2022-08-19T06:56:00;7.63;;;5.13;;
5904;SDS011;2978;42.012;24.880;2022-08-19T06:58:29;7.03;;;4.87;;
5904;SDS011;2978;42.012;24.880;2022-08-19T07:00:59;8.40;;;5.40;;
5904;SDS011;2978;42.012;24.880;2022-08-19T07:03:28;9.80;;;5.30;;
5904;SDS011;2978;42.012;24.880;2022-08-19T07:05:56;11.83;;;5.47;;
5904;SDS011;2978;42.012;24.880;2022-08-19T07:08:21;21.83;;;5.10;;
5904;SDS011;2978;42.012;24.880;2022-08-19T07:10:47;7.60;;;5.17;;
5904;SDS011;2978;42.012;24.880;2022-08-19T07:13:14;13.80;;;5.57;;
5904;SDS011;2978;42.012;24.880;2022-08-19T07:15:45;14.67;;;6.80;;
5904;SDS011;2978;42.012;24.880;2022-08-19T07:18:12;17.03;;;6.40;;
5904;SDS011;2978;42.012;24.880;2022-08-19T07:20:37;12.60;;;6.20;;
5904;SDS011;2978;42.012;24.880;2022-08-19T07:23:04;18.70;;;6.73;;
5904;SDS011;2978;42.012;24.880;2022-08-19T07:25:30;16.97;;;6.40;;
5904;SDS011;2978;42.012;24.880;2022-08-19T07:27:55;13.17;;;6.60;;
5904;SDS011;2978;42.012;24.880;2022-08-19T07:30:20;10.67;;;6.20;;
5904;SDS011;2978;42.012;24.880;2022-08-19T07:32:48;15.17;;;6.00;;
5904;SDS011;2978;42.012;24.880;2022-08-19T07:35:15;7.57;;;5.33;;
5904;SDS011;2978;42.012;24.880;2022-08-19T07:37:44;15.33;;;7.23;;
5904;SDS011;2978;42.012;24.880;2022-08-19T07:40:10;11.67;;;5.73;;
5904;SDS011;2978;42.012;24.880;2022-08-19T07:42:36;13.47;;;6.10;;
5904;SDS011;2978;42.012;24.880;2022-08-19T07:45:02;15.67;;;6.10;;
5904;SDS011;2978;42.012;24.880;2022-08-19T07:47:28;8.37;;;6.37;;
5904;SDS011;2978;42.012;24.880;2022-08-19T07:49:56;20.67;;;6.53;;
5904;SDS011;2978;42.012;24.880;2022-08-19T07:52:22;10.03;;;5.30;;
5904;SDS011;2978;42.012;24.880;2022-08-19T07:54:47;21.27;;;6.43;;
5904;SDS011;2978;42.012;24.880;2022-08-19T07:57:14;13.00;;;6.67;;
5904;SDS011;2978;42.012;24.880;2022-08-19T07:59:40;16.20;;;5.40;;
5904;SDS011;2978;42.012;24.880;2022-08-19T08:02:06;14.10;;;6.13;;
5904;SDS011;2978;42.012;24.880;2022-08-19T08:04:33;11.83;;;5.67;;
5904;SDS011;2978;42.012;24.880;2022-08-19T08:07:17;19.30;;;5.90;;
5904;SDS011;2978;42.012;24.880;2022-08-19T08:10:03;12.63;;;5.40;;
5904;SDS011;2978;42.012;24.880;2022-08-19T08:12:35;12.40;;;5.87;;
5904;SDS011;2978;42.012;24.880;2022-08-19T08:20:45;17.63;;;5.97;;
5904;SDS011;2978;42.012;24.880;2022-08-19T08:23:11;23.13;;;6.43;;
5904;SDS011;2978;42.012;24.880;2022-08-19T08:28:59;11.63;;;6.20;;
5904;SDS011;2978;42.012;24.880;2022-08-19T08:31:25;10.00;;;5.53;;
5904;SDS011;2978;42.012;24.880;2022-08-19T08:33:50;24.30;;;6.30;;
5904;SDS011;2978;42.012;24.880;2022-08-19T08:36:16;11.82;;;5.95;;
5904;SDS011;2978;42.012;24.880;2022-08-19T08:38:42;13.13;;;6.07;;
5904;SDS011;2978;42.012;24.880;2022-08-19T08:43:56;8.97;;;5.63;;
5904;SDS011;2978;42.012;24.880;2022-08-19T08:46:31;11.20;;;6.50;;
5904;SDS011;2978;42.012;24.880;2022-08-19T08:49:24;12.50;;;5.57;;
5904;SDS011;2978;42.012;24.880;2022-08-19T08:54:36;16.00;;;6.53;;
5904;SDS011;2978;42.012;24.880;2022-08-19T08:57:09;13.17;;;6.50;;
5904;SDS011;2978;42.012;24.880;2022-08-19T08:59:43;14.00;;;5.40;;
5904;SDS011;2978;42.012;24.880;2022-08-19T09:02:16;10.17;;;5.60;;
5904;SDS011;2978;42.012;24.880;2022-08-19T09:04:42;9.60;;;5.30;;
5904;SDS011;2978;42.012;24.880;2022-08-19T09:07:14;10.90;;;5.37;;
5904;SDS011;2978;42.012;24.880;2022-08-19T09:10:17;13.23;;;5.67;;
5904;SDS011;2978;42.012;24.880;2022-08-19T09:12:55;8.68;;;5.45;;
5904;SDS011;2978;42.012;24.880;2022-08-19T09:15:43;12.50;;;6.13;;
5904;SDS011;2978;42.012;24.880;2022-08-19T09:18:13;8.23;;;5.50;;
5904;SDS011;2978;42.012;24.880;2022-08-19T09:20:39;9.43;;;5.93;;
5904;SDS011;2978;42.012;24.880;2022-08-19T09:23:05;14.40;;;5.50;;
5904;SDS011;2978;42.012;24.880;2022-08-19T09:25:30;9.53;;;5.60;;
5904;SDS011;2978;42.012;24.880;2022-08-19T09:27:57;11.53;;;5.70;;
5904;SDS011;2978;42.012;24.880;2022-08-19T09:30:28;9.73;;;4.85;;
5904;SDS011;2978;42.012;24.880;2022-08-19T09:33:04;9.87;;;5.77;;
5904;SDS011;2978;42.012;24.880;2022-08-19T09:35:30;14.47;;;4.80;;
5904;SDS011;2978;42.012;24.880;2022-08-19T09:37:56;13.60;;;5.13;;
5904;SDS011;2978;42.012;24.880;2022-08-19T09:40:22;8.93;;;4.97;;
5904;SDS011;2978;42.012;24.880;2022-08-19T09:42:48;9.70;;;5.30;;
5904;SDS011;2978;42.012;24.880;2022-08-19T09:45:15;9.80;;;5.43;;
5904;SDS011;2978;42.012;24.880;2022-08-19T09:47:42;9.10;;;5.20;;
5904;SDS011;2978;42.012;24.880;2022-08-19T09:50:09;12.07;;;5.80;;
5904;SDS011;2978;42.012;24.880;2022-08-19T09:52:36;11.17;;;5.30;;
5904;SDS011;2978;42.012;24.880;2022-08-19T09:55:05;11.23;;;5.20;;
5904;SDS011;2978;42.012;24.880;2022-08-19T10:00:27;7.70;;;4.70;;
5904;SDS011;2978;42.012;24.880;2022-08-19T10:02:53;6.40;;;4.70;;
5904;SDS011;2978;42.012;24.880;2022-08-19T10:05:19;8.80;;;4.70;;
5904;SDS011;2978;42.012;24.880;2022-08-19T10:08:03;11.63;;;4.60;;
5904;SDS011;2978;42.012;24.880;2022-08-19T10:10:28;12.23;;;4.20;;
5904;SDS011;2978;42.012;24.880;2022-08-19T10:12:54;7.23;;;4.07;;
5904;SDS011;2978;42.012;24.880;2022-08-19T10:15:23;7.17;;;4.13;;
5904;SDS011;2978;42.012;24.880;2022-08-19T10:17:48;6.37;;;4.40;;
5904;SDS011;2978;42.012;24.880;2022-08-19T10:20:14;6.93;;;4.60;;
5904;SDS011;2978;42.012;24.880;2022-08-19T10:22:39;6.43;;;3.90;;
5904;SDS011;2978;42.012;24.880;2022-08-19T10:25:06;9.70;;;3.80;;
5904;SDS011;2978;42.012;24.880;2022-08-19T10:27:32;5.03;;;3.93;;
5904;SDS011;2978;42.012;24.880;2022-08-19T10:29:57;8.57;;;4.87;;
5904;SDS011;2978;42.012;24.880;2022-08-19T10:32:23;11.80;;;4.03;;
5904;SDS011;2978;42.012;24.880;2022-08-19T10:34:50;6.10;;;4.23;;
5904;SDS011;2978;42.012;24.880;2022-08-19T10:37:17;5.18;;;3.95;;
5904;SDS011;2978;42.012;24.880;2022-08-19T10:39:43;15.27;;;4.77;;
5904;SDS011;2978;42.012;24.880;2022-08-19T10:42:12;6.57;;;3.93;;
5904;SDS011;2978;42.012;24.880;2022-08-19T10:44:38;9.87;;;4.83;;
5904;SDS011;2978;42.012;24.880;2022-08-19T10:47:04;5.25;;;3.97;;
5904;SDS011;2978;42.012;24.880;2022-08-19T10:49:30;5.53;;;4.10;;
5904;SDS011;2978;42.012;24.880;2022-08-19T10:51:57;7.23;;;4.70;;
5904;SDS011;2978;42.012;24.880;2022-08-19T10:54:41;4.90;;;3.73;;
5904;SDS011;2978;42.012;24.880;2022-08-19T10:57:25;8.93;;;4.43;;
5904;SDS011;2978;42.012;24.880;2022-08-19T10:59:56;8.43;;;3.90;;
5904;SDS011;2978;42.012;24.880;2022-08-19T11:02:22;7.95;;;4.93;;
5904;SDS011;2978;42.012;24.880;2022-08-19T11:04:47;9.70;;;4.43;;
5904;SDS011;2978;42.012;24.880;2022-08-19T11:07:15;6.20;;;3.87;;
5904;SDS011;2978;42.012;24.880;2022-08-19T11:09:41;6.75;;;3.70;;
5904;SDS011;2978;42.012;24.880;2022-08-19T11:12:07;14.27;;;4.23;;
5904;SDS011;2978;42.012;24.880;2022-08-19T11:14:34;5.17;;;3.53;;
5904;SDS011;2978;42.012;24.880;2022-08-19T11:17:00;8.38;;;4.55;;
5904;SDS011;2978;42.012;24.880;2022-08-19T11:19:28;9.07;;;4.00;;
5904;SDS011;2978;42.012;24.880;2022-08-19T11:21:54;4.53;;;3.53;;
5904;SDS011;2978;42.012;24.880;2022-08-19T11:24:23;8.60;;;4.17;;
5904;SDS011;2978;42.012;24.880;2022-08-19T11:26:50;14.23;;;4.30;;
5904;SDS011;2978;42.012;24.880;2022-08-19T11:29:18;8.83;;;3.87;;
5904;SDS011;2978;42.012;24.880;2022-08-19T11:31:46;7.37;;;4.67;;
5904;SDS011;2978;42.012;24.880;2022-08-19T11:34:21;11.73;;;4.37;;
5904;SDS011;2978;42.012;24.880;2022-08-19T11:36:55;4.70;;;4.20;;
5904;SDS011;2978;42.012;24.880;2022-08-19T11:39:25;10.57;;;4.30;;
5904;SDS011;2978;42.012;24.880;2022-08-19T11:41:57;8.80;;;3.93;;
5904;SDS011;2978;42.012;24.880;2022-08-19T11:44:26;8.70;;;4.30;;
5904;SDS011;2978;42.012;24.880;2022-08-19T11:46:55;5.63;;;3.63;;
5904;SDS011;2978;42.012;24.880;2022-08-19T11:49:21;8.63;;;3.70;;
5904;SDS011;2978;42.012;24.880;2022-08-19T11:51:47;4.80;;;3.93;;
5904;SDS011;2978;42.012;24.880;2022-08-19T11:54:15;7.30;;;3.60;;
5904;SDS011;2978;42.012;24.880;2022-08-19T11:56:42;10.30;;;3.30;;
5904;SDS011;2978;42.012;24.880;2022-08-19T11:59:08;5.00;;;3.50;;
5904;SDS011;2978;42.012;24.880;2022-08-19T12:01:35;4.87;;;3.23;;
5904;SDS011;2978;42.012;24.880;2022-08-19T12:04:01;7.00;;;3.20;;
5904;SDS011;2978;42.012;24.880;2022-08-19T12:06:29;9.37;;;3.90;;
5904;SDS011;2978;42.012;24.880;2022-08-19T12:08:57;7.55;;;3.58;;
5904;SDS011;2978;42.012;24.880;2022-08-19T12:11:24;7.67;;;4.50;;
5904;SDS011;2978;42.012;24.880;2022-08-19T12:13:50;6.53;;;3.70;;
5904;SDS011;2978;42.012;24.880;2022-08-19T12:16:18;5.83;;;3.43;;
5904;SDS011;2978;42.012;24.880;2022-08-19T12:18:47;7.30;;;3.23;;
5904;SDS011;2978;42.012;24.880;2022-08-19T12:21:18;7.10;;;4.20;;
5904;SDS011;2978;42.012;24.880;2022-08-19T12:23:54;12.50;;;4.10;;
5904;SDS011;2978;42.012;24.880;2022-08-19T12:26:27;8.50;;;3.80;;
5904;SDS011;2978;42.012;24.880;2022-08-19T12:28:53;10.10;;;4.07;;
5904;SDS011;2978;42.012;24.880;2022-08-19T12:31:19;9.00;;;4.60;;
5904;SDS011;2978;42.012;24.880;2022-08-19T12:33:45;7.90;;;3.70;;
5904;SDS011;2978;42.012;24.880;2022-08-19T12:36:12;7.20;;;3.87;;
5904;SDS011;2978;42.012;24.880;2022-08-19T12:38:41;12.32;;;3.90;;
5904;SDS011;2978;42.012;24.880;2022-08-19T12:41:11;5.25;;;3.55;;
5904;SDS011;2978;42.012;24.880;2022-08-19T12:43:38;10.43;;;4.35;;
5904;SDS011;2978;42.012;24.880;2022-08-19T12:46:04;5.47;;;4.00;;
5904;SDS011;2978;42.012;24.880;2022-08-19T12:48:31;5.25;;;3.70;;
5904;SDS011;2978;42.012;24.880;2022-08-19T12:50:57;4.95;;;3.83;;
5904;SDS011;2978;42.012;24.880;2022-08-19T12:53:22;15.13;;;4.20;;
5904;SDS011;2978;42.012;24.880;2022-08-19T12:55:54;5.93;;;3.60;;
5904;SDS011;2978;42.012;24.880;2022-08-19T12:58:21;6.73;;;4.20;;
5904;SDS011;2978;42.012;24.880;2022-08-19T13:00:47;6.00;;;3.80;;
5904;SDS011;2978;42.012;24.880;2022-08-19T13:03:13;9.53;;;4.47;;
5904;SDS011;2978;42.012;24.880;2022-08-19T13:05:40;6.70;;;4.40;;
5904;SDS011;2978;42.012;24.880;2022-08-19T13:08:05;5.37;;;3.90;;
5904;SDS011;2978;42.012;24.880;2022-08-19T13:10:32;13.30;;;5.00;;
5904;SDS011;2978;42.012;24.880;2022-08-19T13:12:59;9.27;;;4.33;;
5904;SDS011;2978;42.012;24.880;2022-08-19T13:15:27;5.80;;;4.37;;
5904;SDS011;2978;42.012;24.880;2022-08-19T13:17:53;5.10;;;3.50;;
5904;SDS011;2978;42.012;24.880;2022-08-19T13:20:20;7.83;;;4.90;;
5904;SDS011;2978;42.012;24.880;2022-08-19T13:22:47;8.47;;;4.90;;
5904;SDS011;2978;42.012;24.880;2022-08-19T13:25:13;6.00;;;3.70;;
5904;SDS011;2978;42.012;24.880;2022-08-19T13:27:42;8.00;;;3.47;;
5904;SDS011;2978;42.012;24.880;2022-08-19T13:30:08;9.77;;;3.70;;
5904;SDS011;2978;42.012;24.880;2022-08-19T13:32:54;10.73;;;4.13;;
5904;SDS011;2978;42.012;24.880;2022-08-19T13:35:50;4.00;;;3.50;;
5904;SDS011;2978;42.012;24.880;2022-08-19T13:38:22;9.20;;;4.33;;
5904;SDS011;2978;42.012;24.880;2022-08-19T13:40:49;7.00;;;4.03;;
5904;SDS011;2978;42.012;24.880;2022-08-19T13:43:16;6.30;;;4.00;;
5904;SDS011;2978;42.012;24.880;2022-08-19T13:45:50;12.83;;;4.20;;
5904;SDS011;2978;42.012;24.880;2022-08-19T13:48:18;6.50;;;3.43;;
5904;SDS011;2978;42.012;24.880;2022-08-19T13:50:49;10.17;;;4.37;;
5904;SDS011;2978;42.012;24.880;2022-08-19T13:53:15;6.43;;;3.90;;
5904;SDS011;2978;42.012;24.880;2022-08-19T13:55:44;8.93;;;4.33;;
5904;SDS011;2978;42.012;24.880;2022-08-19T13:58:09;9.07;;;3.73;;
5904;SDS011;2978;42.012;24.880;2022-08-19T14:00:37;6.30;;;4.13;;
5904;SDS011;2978;42.012;24.880;2022-08-19T14:03:04;6.53;;;4.03;;
5904;SDS011;2978;42.012;24.880;2022-08-19T14:05:31;9.03;;;4.40;;
5904;SDS011;2978;42.012;24.880;2022-08-19T14:07:58;5.80;;;3.90;;
5904;SDS011;2978;42.012;24.880;2022-08-19T14:10:25;8.10;;;4.53;;
5904;SDS011;2978;42.012;24.880;2022-08-19T14:12:54;12.30;;;3.63;;
5904;SDS011;2978;42.012;24.880;2022-08-19T14:15:23;12.77;;;4.57;;
5904;SDS011;2978;42.012;24.880;2022-08-19T14:17:49;9.70;;;4.17;;
5904;SDS011;2978;42.012;24.880;2022-08-19T14:20:16;9.37;;;5.03;;
5904;SDS011;2978;42.012;24.880;2022-08-19T14:22:42;9.83;;;4.23;;
5904;SDS011;2978;42.012;24.880;2022-08-19T14:25:09;7.40;;;3.90;;
5904;SDS011;2978;42.012;24.880;2022-08-19T14:27:46;6.17;;;4.03;;
5904;SDS011;2978;42.012;24.880;2022-08-19T14:30:14;4.60;;;3.50;;
5904;SDS011;2978;42.012;24.880;2022-08-19T14:32:42;10.23;;;4.50;;
5904;SDS011;2978;42.012;24.880;2022-08-19T14:35:11;6.50;;;4.27;;
5904;SDS011;2978;42.012;24.880;2022-08-19T14:37:38;10.63;;;4.43;;
5904;SDS011;2978;42.012;24.880;2022-08-19T14:40:44;6.30;;;4.10;;
5904;SDS011;2978;42.012;24.880;2022-08-19T14:43:13;6.30;;;4.10;;
5904;SDS011;2978;42.012;24.880;2022-08-19T14:45:39;8.30;;;3.80;;
5904;SDS011;2978;42.012;24.880;2022-08-19T14:48:05;7.63;;;4.10;;
5904;SDS011;2978;42.012;24.880;2022-08-19T14:50:34;5.20;;;4.03;;
5904;SDS011;2978;42.012;24.880;2022-08-19T14:53:06;6.40;;;4.37;;
5904;SDS011;2978;42.012;24.880;2022-08-19T14:55:42;6.37;;;3.83;;
5904;SDS011;2978;42.012;24.880;2022-08-19T14:58:09;12.47;;;4.40;;
5904;SDS011;2978;42.012;24.880;2022-08-19T15:00:34;7.70;;;4.07;;
5904;SDS011;2978;42.012;24.880;2022-08-19T15:03:16;9.98;;;5.07;;
5904;SDS011;2978;42.012;24.880;2022-08-19T15:05:41;8.07;;;5.30;;
5904;SDS011;2978;42.012;24.880;2022-08-19T15:08:07;5.63;;;4.10;;
5904;SDS011;2978;42.012;24.880;2022-08-19T15:10:33;7.77;;;4.10;;
5904;SDS011;2978;42.012;24.880;2022-08-19T15:13:04;4.70;;;3.60;;
5904;SDS011;2978;42.012;24.880;2022-08-19T15:15:30;9.40;;;4.47;;
5904;SDS011;2978;42.012;24.880;2022-08-19T15:17:56;8.13;;;3.97;;
5904;SDS011;2978;42.012;24.880;2022-08-19T15:20:27;12.43;;;3.80;;
5904;SDS011;2978;42.012;24.880;2022-08-19T15:22:53;6.30;;;4.07;;